createdAt,value
2022-10-04T00:00:28.644Z,2.85
2022-10-04T00:03:05.386Z,2.95
2022-10-04T00:05:33.418Z,2.90
2022-10-04T00:08:29.559Z,3.28
2022-10-04T00:11:18.284Z,2.90
2022-10-04T00:13:55.486Z,2.90
2022-10-04T00:16:28.723Z,3.30
2022-10-04T00:19:19.606Z,3.20
2022-10-04T00:21:56.508Z,3.22
2022-10-04T00:24:28.698Z,3.30
2022-10-04T00:27:24.679Z,3.67
2022-10-04T00:30:23.789Z,3.13
2022-10-04T00:33:02.213Z,3.25
2022-10-04T00:35:29.126Z,3.10
2022-10-04T00:38:02.982Z,3.13
2022-10-04T00:40:33.214Z,3.00
2022-10-04T00:43:12.804Z,2.90
2022-10-04T00:46:18.968Z,3.38
2022-10-04T00:48:48.802Z,3.20
2022-10-04T00:51:24.783Z,3.67
2022-10-04T00:54:12.474Z,3.55
2022-10-04T00:57:01.935Z,3.00
2022-10-04T00:59:38.745Z,3.63
2022-10-04T01:02:11.058Z,3.65
2022-10-04T01:04:50.174Z,3.80
2022-10-04T01:07:27.328Z,4.10
2022-10-04T01:10:02.840Z,3.70
2022-10-04T01:12:32.865Z,4.15
2022-10-04T01:15:07.740Z,3.58
2022-10-04T01:17:35.147Z,3.78
2022-10-04T01:20:02.999Z,4.38
2022-10-04T01:22:44.179Z,3.72
2022-10-04T01:25:11.233Z,3.72
2022-10-04T01:27:43.932Z,3.42
2022-10-04T01:30:16.999Z,3.72
2022-10-04T01:32:45.494Z,3.47
2022-10-04T01:35:14.690Z,3.55
2022-10-04T01:37:41.902Z,4.10
2022-10-04T01:40:10.238Z,3.83
2022-10-04T01:42:55.218Z,4.22
2022-10-04T01:45:46.204Z,4.03
2022-10-04T01:48:17.436Z,4.07
2022-10-04T01:50:52.061Z,3.65
2022-10-04T01:53:20.931Z,4.18
2022-10-04T01:55:52.082Z,3.60
2022-10-04T01:58:23.746Z,3.40
2022-10-04T02:01:01.105Z,3.47
2022-10-04T02:03:43.658Z,4.05
2022-10-04T02:06:13.555Z,3.50
2022-10-04T02:08:47.239Z,3.35
2022-10-04T02:11:22.279Z,3.90
2022-10-04T02:13:53.665Z,3.15
2022-10-04T02:16:22.708Z,3.55
2022-10-04T02:18:51.709Z,3.30
2022-10-04T02:21:20.374Z,3.60
2022-10-04T02:23:48.011Z,3.00
2022-10-04T02:26:15.169Z,3.20
2022-10-04T02:28:42.448Z,3.30
2022-10-04T02:31:29.604Z,3.00
2022-10-04T02:33:59.456Z,3.30
2022-10-04T02:36:29.567Z,3.25
2022-10-04T02:39:39.097Z,3.33
2022-10-04T02:42:29.130Z,3.05
2022-10-04T02:45:10.123Z,3.83
2022-10-04T02:47:53.364Z,3.33
2022-10-04T02:50:29.826Z,3.88
2022-10-04T02:53:13.176Z,4.15
2022-10-04T02:55:43.700Z,3.65
2022-10-04T02:58:17.550Z,3.70
2022-10-04T03:00:52.132Z,3.38
2022-10-04T03:03:29.567Z,3.92
2022-10-04T03:06:02.739Z,3.97
2022-10-04T03:08:36.153Z,3.83
2022-10-04T03:11:05.303Z,3.70
2022-10-04T03:13:33.314Z,3.35
2022-10-04T03:16:01.103Z,3.78
2022-10-04T03:18:31.064Z,3.95
2022-10-04T03:21:01.729Z,4.28
2022-10-04T03:23:31.046Z,3.92
2022-10-04T03:26:04.638Z,3.97
2022-10-04T03:28:31.729Z,3.72
2022-10-04T03:30:59.025Z,3.70
2022-10-04T03:33:28.944Z,4.10
2022-10-04T03:35:58.661Z,4.22
2022-10-04T03:38:28.731Z,3.90
2022-10-04T03:40:59.328Z,3.67
2022-10-04T03:43:31.535Z,3.90
2022-10-04T03:46:00.908Z,5.18
2022-10-04T03:48:34.398Z,3.75
2022-10-04T03:51:04.397Z,3.83
2022-10-04T03:53:35.428Z,4.97
2022-10-04T03:56:09.238Z,4.20
2022-10-04T03:58:36.531Z,3.63
2022-10-04T04:01:22.096Z,4.75
2022-10-04T04:04:48.404Z,4.32
2022-10-04T04:07:25.236Z,5.00
2022-10-04T04:10:08.984Z,4.35
2022-10-04T04:12:40.737Z,3.90
2022-10-04T04:15:12.427Z,3.85
2022-10-04T04:17:47.510Z,4.05
2022-10-04T04:20:29.615Z,4.82
2022-10-04T04:23:14.783Z,4.63
2022-10-04T04:25:47.237Z,4.22
2022-10-04T04:28:34.683Z,4.20
2022-10-04T04:31:13.119Z,4.40
2022-10-04T04:33:44.503Z,4.00
2022-10-04T04:36:14.279Z,3.80
2022-10-04T04:39:01.307Z,4.32
2022-10-04T04:41:31.807Z,3.85
2022-10-04T04:43:58.914Z,3.85
2022-10-04T04:46:28.159Z,5.40
2022-10-04T04:49:02.657Z,4.93
2022-10-04T04:51:32.010Z,4.90
2022-10-04T04:54:02.195Z,5.18
2022-10-04T04:56:30.997Z,4.07
2022-10-04T04:59:02.542Z,4.75
2022-10-04T05:01:34.580Z,4.80
2022-10-04T05:04:07.053Z,4.32
2022-10-04T05:06:37.044Z,4.97
2022-10-04T05:09:05.580Z,4.53
2022-10-04T05:11:38.857Z,4.97
2022-10-04T05:14:09.745Z,4.88
2022-10-04T05:16:41.889Z,4.20
2022-10-04T05:19:24.225Z,4.90
2022-10-04T05:21:56.016Z,4.70
2022-10-04T05:24:37.581Z,4.38
2022-10-04T05:27:08.058Z,4.20
2022-10-04T05:29:39.647Z,4.68
2022-10-04T05:32:29.647Z,5.03
2022-10-04T05:34:57.774Z,4.82
2022-10-04T05:37:49.269Z,4.45
2022-10-04T05:40:23.726Z,4.20
2022-10-04T05:42:52.416Z,4.43
2022-10-04T05:45:28.127Z,3.95
2022-10-04T05:47:57.489Z,4.00
2022-10-04T05:50:33.464Z,4.22
2022-10-04T05:53:26.878Z,4.25
2022-10-04T05:56:05.871Z,3.80
2022-10-04T05:58:41.734Z,3.95
2022-10-04T06:01:23.603Z,4.20
2022-10-04T06:04:09.556Z,4.97
2022-10-04T06:07:21.663Z,4.30
2022-10-04T06:10:08.766Z,4.80
2022-10-04T06:13:08.030Z,3.80
2022-10-04T06:15:58.778Z,3.70
2022-10-04T06:19:02.674Z,3.97
2022-10-04T06:21:32.157Z,4.05
2022-10-04T06:24:10.502Z,4.15
2022-10-04T06:26:48.352Z,5.10
2022-10-04T06:29:20.740Z,4.13
2022-10-04T06:31:47.609Z,4.28
2022-10-04T06:34:29.900Z,3.78
2022-10-04T06:36:57.163Z,3.88
2022-10-04T06:39:49.374Z,3.83
2022-10-04T06:42:48.189Z,4.47
2022-10-04T06:45:33.755Z,3.50
2022-10-04T06:48:15.608Z,3.75
2022-10-04T06:50:42.472Z,3.63
2022-10-04T06:54:06.819Z,3.58
2022-10-04T06:56:41.797Z,3.35
2022-10-04T06:59:15.465Z,4.88
2022-10-04T07:01:52.535Z,4.75
2022-10-04T07:05:06.909Z,3.75
2022-10-04T07:07:35.778Z,3.15
2022-10-04T07:10:08.505Z,3.60
2022-10-04T07:12:41.757Z,4.18
2022-10-04T07:15:23.719Z,3.67
2022-10-04T07:17:53.733Z,3.30
2022-10-04T07:20:27.727Z,3.20
2022-10-04T07:23:05.981Z,3.70
2022-10-04T07:25:43.839Z,3.47
2022-10-04T07:28:32.714Z,3.22
2022-10-04T07:31:14.187Z,3.45
2022-10-04T07:33:51.860Z,3.17
2022-10-04T07:36:40.157Z,3.00
2022-10-04T07:39:30.943Z,3.35
2022-10-04T07:42:15.903Z,2.88
2022-10-04T07:44:48.782Z,3.40
2022-10-04T07:47:26.884Z,3.30
2022-10-04T07:49:55.235Z,3.28
2022-10-04T07:52:49.260Z,2.85
2022-10-04T07:55:25.283Z,3.35
2022-10-04T07:58:24.239Z,2.83
2022-10-04T08:01:07.607Z,3.03
2022-10-04T08:03:57.496Z,3.13
2022-10-04T08:06:40.234Z,2.97
2022-10-04T08:09:37.334Z,2.78
2022-10-04T08:12:07.276Z,2.60
2022-10-04T08:14:53.271Z,2.83
2022-10-04T08:17:47.642Z,2.55
2022-10-04T08:20:43.553Z,2.72
2022-10-04T08:23:10.591Z,2.75
2022-10-04T08:26:08.129Z,3.13
2022-10-04T08:29:22.467Z,2.40
2022-10-04T08:32:07.407Z,3.25
2022-10-04T08:35:02.832Z,2.90
2022-10-04T08:37:49.646Z,2.67
2022-10-04T08:40:47.558Z,2.58
2022-10-04T08:46:20.003Z,3.05
2022-10-04T08:49:10.790Z,2.90
2022-10-04T08:52:11.269Z,2.90
2022-10-04T08:55:00.572Z,2.72
2022-10-04T08:57:48.956Z,2.58
2022-10-04T09:00:52.956Z,2.47
2022-10-04T09:03:59.041Z,2.58
2022-10-04T09:06:54.904Z,3.13
2022-10-04T09:10:15.872Z,2.70
2022-10-04T09:12:47.230Z,2.60
2022-10-04T09:15:51.678Z,2.47
2022-10-04T09:18:49.512Z,2.83
2022-10-04T09:21:39.566Z,2.53
2022-10-04T09:24:44.034Z,2.80
2022-10-04T09:27:55.213Z,3.08
2022-10-04T09:30:25.313Z,3.20
2022-10-04T09:33:04.359Z,2.97
2022-10-04T09:35:53.831Z,2.95
2022-10-04T09:38:35.763Z,2.83
2022-10-04T09:41:20.776Z,2.65
2022-10-04T09:44:16.893Z,2.60
2022-10-04T09:46:47.631Z,2.50
2022-10-04T09:49:39.341Z,2.70
2022-10-04T09:52:40.458Z,2.45
2022-10-04T09:55:49.687Z,2.53
2022-10-04T09:58:53.843Z,2.70
2022-10-04T10:01:42.856Z,2.30
2022-10-04T10:05:00.234Z,2.33
2022-10-04T10:07:29.810Z,2.47
2022-10-04T10:10:33.353Z,2.20
2022-10-04T10:13:40.561Z,2.97
2022-10-04T10:16:26.009Z,2.72
2022-10-04T10:19:01.835Z,2.75
2022-10-04T10:21:54.819Z,2.23
2022-10-04T10:24:58.406Z,2.60
2022-10-04T10:27:31.900Z,2.33
2022-10-04T10:30:15.768Z,3.00
2022-10-04T10:33:00.903Z,2.58
2022-10-04T10:35:52.383Z,2.25
2022-10-04T10:38:44.079Z,2.42
2022-10-04T10:41:41.564Z,2.60
2022-10-04T10:44:21.387Z,2.60
2022-10-04T10:47:22.427Z,2.72
2022-10-04T10:51:00.001Z,2.67
2022-10-04T10:53:48.331Z,2.00
2022-10-04T10:56:45.985Z,2.50
2022-10-04T10:59:36.330Z,3.28
2022-10-04T11:02:48.643Z,3.10
2022-10-04T11:05:29.673Z,2.40
2022-10-04T11:08:27.794Z,2.13
2022-10-04T11:11:15.980Z,2.47
2022-10-04T11:14:04.659Z,1.83
2022-10-04T11:17:05.498Z,1.50
2022-10-04T11:20:11.271Z,1.52
2022-10-04T11:23:00.686Z,1.52
2022-10-04T11:25:45.909Z,1.60
2022-10-04T11:28:22.081Z,1.67
2022-10-04T11:31:10.187Z,1.70
2022-10-04T11:34:16.524Z,1.50
2022-10-04T11:37:16.906Z,1.98
2022-10-04T11:39:50.542Z,1.65
2022-10-04T11:42:29.648Z,1.60
2022-10-04T11:45:48.587Z,1.80
2022-10-04T11:48:43.276Z,2.08
2022-10-04T11:51:51.723Z,2.55
2022-10-04T11:54:57.905Z,1.95
2022-10-04T11:57:40.649Z,1.83
2022-10-04T12:00:26.392Z,1.70
2022-10-04T12:03:29.464Z,1.70
2022-10-04T12:05:57.691Z,1.98
2022-10-04T12:08:48.417Z,1.65
2022-10-04T12:11:48.761Z,1.85
2022-10-04T12:14:33.067Z,1.90
2022-10-04T12:17:09.062Z,1.98
2022-10-04T12:19:42.905Z,1.70
2022-10-04T12:22:20.106Z,1.70
2022-10-04T12:24:58.025Z,2.10
2022-10-04T12:28:02.049Z,1.83
2022-10-04T12:30:58.115Z,1.80
2022-10-04T12:33:42.709Z,1.95
2022-10-04T12:36:28.888Z,1.60
2022-10-04T12:39:28.135Z,1.75
2022-10-04T12:42:09.834Z,2.03
2022-10-04T12:44:46.351Z,1.50
2022-10-04T12:47:56.531Z,1.75
2022-10-04T12:50:57.308Z,1.92
2022-10-04T12:53:49.053Z,1.90
2022-10-04T12:56:22.707Z,1.80
2022-10-04T12:59:01.941Z,1.63
2022-10-04T13:01:47.155Z,1.50
2022-10-04T13:04:20.465Z,1.80
2022-10-04T13:07:01.835Z,1.70
2022-10-04T13:10:22.576Z,1.60
2022-10-04T13:13:05.666Z,1.60
2022-10-04T13:19:00.375Z,1.58
2022-10-04T13:21:39.568Z,1.50
2022-10-04T13:24:21.571Z,4.80
2022-10-04T13:27:14.271Z,1.90
2022-10-04T13:29:52.305Z,1.90
2022-10-04T13:32:27.283Z,1.70
2022-10-04T13:34:54.496Z,1.73
2022-10-04T13:37:50.854Z,1.65
2022-10-04T13:40:29.980Z,1.90
2022-10-04T13:43:22.649Z,1.50
2022-10-04T13:46:02.776Z,1.65
2022-10-04T13:49:29.766Z,1.63
2022-10-04T13:52:30.134Z,1.55
2022-10-04T13:55:35.385Z,1.83
2022-10-04T13:58:16.439Z,1.50
2022-10-04T14:01:20.534Z,1.50
2022-10-04T14:04:22.016Z,1.60
2022-10-04T14:07:09.878Z,1.60
2022-10-04T14:09:53.071Z,1.58
2022-10-04T14:12:26.024Z,1.75
2022-10-04T14:15:24.406Z,1.70
2022-10-04T14:18:24.726Z,1.85
2022-10-04T14:20:59.991Z,1.80
2022-10-04T14:23:46.476Z,1.70
2022-10-04T14:26:28.725Z,1.80
2022-10-04T14:29:13.584Z,1.70
2022-10-04T14:32:20.518Z,1.75
2022-10-04T14:34:55.331Z,1.35
2022-10-04T14:37:43.934Z,1.30
2022-10-04T14:40:13.880Z,1.27
2022-10-04T14:43:02.311Z,1.65
2022-10-04T14:46:07.545Z,1.50
2022-10-04T14:48:47.266Z,1.50
2022-10-04T14:51:34.955Z,1.70
2022-10-04T14:54:01.859Z,1.42
2022-10-04T14:56:35.316Z,1.50
2022-10-04T14:59:26.344Z,1.30
2022-10-04T15:02:23.315Z,4.10
2022-10-04T15:05:28.779Z,2.20
2022-10-04T15:08:15.456Z,1.90
2022-10-04T15:10:55.258Z,2.50
2022-10-04T15:13:28.400Z,2.00
2022-10-04T15:16:10.066Z,1.65
2022-10-04T15:18:38.791Z,1.95
2022-10-04T15:21:32.202Z,1.85
2022-10-04T15:24:28.021Z,1.80
2022-10-04T15:26:58.310Z,1.83
2022-10-04T15:29:25.827Z,1.77
2022-10-04T15:32:24.671Z,1.60
2022-10-04T15:35:27.233Z,1.70
2022-10-04T15:38:14.529Z,1.65
2022-10-04T15:41:08.680Z,1.52
2022-10-04T15:43:44.869Z,1.88
2022-10-04T15:46:40.960Z,1.85
2022-10-04T15:49:28.427Z,1.80
2022-10-04T15:52:40.282Z,1.83
2022-10-04T15:55:41.104Z,1.70
2022-10-04T15:58:53.022Z,2.05
2022-10-04T16:01:35.184Z,2.13
2022-10-04T16:04:26.701Z,3.10
2022-10-04T16:07:01.020Z,2.30
2022-10-04T16:09:57.997Z,2.00
2022-10-04T16:12:56.966Z,2.00
2022-10-04T16:15:35.500Z,2.00
2022-10-04T16:18:38.699Z,2.10
2022-10-04T16:21:37.542Z,2.05
2022-10-04T16:24:20.168Z,2.30
2022-10-04T16:26:47.856Z,2.53
2022-10-04T16:30:02.373Z,2.22
2022-10-04T16:33:00.429Z,2.75
2022-10-04T16:35:31.579Z,2.55
2022-10-04T16:38:17.443Z,2.28
2022-10-04T16:40:59.926Z,2.80
2022-10-04T16:43:31.145Z,2.50
2022-10-04T16:46:07.264Z,2.50
2022-10-04T16:48:46.321Z,2.30
2022-10-04T16:51:22.163Z,2.92
2022-10-04T16:54:14.329Z,2.67
2022-10-04T16:57:01.286Z,2.70
2022-10-04T16:59:38.177Z,2.45
2022-10-04T17:02:28.495Z,2.38
2022-10-04T17:05:25.593Z,3.38
2022-10-04T17:08:18.981Z,2.60
2022-10-04T17:10:49.900Z,2.20
2022-10-04T17:13:36.049Z,2.28
2022-10-04T17:16:14.278Z,2.30
2022-10-04T17:18:55.605Z,2.50
2022-10-04T17:21:40.914Z,2.55
2022-10-04T17:24:16.226Z,2.35
2022-10-04T17:27:19.516Z,2.20
2022-10-04T17:30:02.971Z,2.38
2022-10-04T17:32:59.937Z,2.60
2022-10-04T17:35:59.394Z,2.33
2022-10-04T17:38:43.378Z,2.50
2022-10-04T17:41:22.675Z,2.60
2022-10-04T17:43:56.261Z,2.30
2022-10-04T17:46:50.129Z,2.20
2022-10-04T17:50:00.139Z,2.20
2022-10-04T17:52:53.084Z,2.25
2022-10-04T17:55:34.071Z,2.55
2022-10-04T17:58:15.987Z,2.30
2022-10-04T18:00:53.104Z,2.42
2022-10-04T18:03:26.231Z,2.88
2022-10-04T18:05:59.747Z,2.47
2022-10-04T18:08:55.305Z,2.67
2022-10-04T18:11:29.213Z,2.35
2022-10-04T18:14:02.830Z,2.17
2022-10-04T18:16:43.886Z,2.40
2022-10-04T18:19:37.009Z,2.67
2022-10-04T18:22:10.593Z,2.60
2022-10-04T18:24:38.098Z,2.60
2022-10-04T18:27:18.609Z,2.30
2022-10-04T18:30:13.978Z,3.65
2022-10-04T18:33:01.818Z,2.55
2022-10-04T18:35:31.497Z,2.72
2022-10-04T18:38:24.519Z,2.70
2022-10-04T18:41:02.505Z,2.40
2022-10-04T18:43:35.858Z,3.00
2022-10-04T18:46:17.648Z,2.60
2022-10-04T18:48:55.369Z,2.53
2022-10-04T18:51:23.264Z,2.50
2022-10-04T18:53:58.049Z,2.45
2022-10-04T18:56:28.428Z,2.58
2022-10-04T18:59:48.371Z,2.50
2022-10-04T19:02:34.908Z,2.42
2022-10-04T19:05:19.215Z,2.25
2022-10-04T19:07:58.433Z,2.55
2022-10-04T19:10:58.864Z,2.50
2022-10-04T19:13:55.360Z,2.50
2022-10-04T19:16:47.570Z,2.42
2022-10-04T19:19:29.210Z,2.60
2022-10-04T19:22:02.890Z,2.40
2022-10-04T19:24:52.661Z,2.83
2022-10-04T19:27:37.169Z,2.80
2022-10-04T19:30:04.356Z,2.72
2022-10-04T19:32:52.998Z,2.80
2022-10-04T19:35:26.444Z,2.42
2022-10-04T19:38:02.815Z,2.60
2022-10-04T19:40:45.271Z,2.80
2022-10-04T19:43:31.784Z,2.67
2022-10-04T19:46:17.295Z,2.83
2022-10-04T19:48:52.513Z,2.72
2022-10-04T19:51:36.473Z,2.90
2022-10-04T19:54:15.273Z,2.50
2022-10-04T19:56:49.662Z,2.80
2022-10-04T19:59:40.802Z,2.60
2022-10-04T20:02:12.756Z,2.50
2022-10-04T20:04:42.140Z,3.20
2022-10-04T20:07:20.956Z,2.63
2022-10-04T20:09:57.072Z,2.97
2022-10-04T20:13:04.207Z,3.60
2022-10-04T20:15:34.993Z,2.88
2022-10-04T20:18:03.424Z,2.75
2022-10-04T20:20:39.483Z,2.72
2022-10-04T20:23:08.166Z,2.78
2022-10-04T20:25:50.461Z,2.50
2022-10-04T20:28:26.416Z,2.58
2022-10-04T20:30:54.789Z,2.75
2022-10-04T20:33:33.746Z,2.70
2022-10-04T20:36:12.262Z,2.42
2022-10-04T20:39:01.147Z,2.42
2022-10-04T20:41:28.121Z,2.47
2022-10-04T20:44:04.089Z,2.30
2022-10-04T20:46:38.365Z,2.10
2022-10-04T20:49:16.006Z,2.05
2022-10-04T20:51:50.079Z,2.50
2022-10-04T20:54:22.591Z,2.15
2022-10-04T20:56:51.553Z,2.08
2022-10-04T20:59:18.803Z,2.15
2022-10-04T21:02:05.370Z,2.20
2022-10-04T21:04:35.049Z,2.17
2022-10-04T21:07:05.910Z,2.20
2022-10-04T21:09:35.284Z,2.28
2022-10-04T21:12:04.312Z,2.30
2022-10-04T21:14:36.381Z,2.00
2022-10-04T21:17:28.649Z,2.55
2022-10-04T21:19:55.617Z,1.90
2022-10-04T21:22:25.603Z,2.30
2022-10-04T21:24:57.021Z,2.10
2022-10-04T21:27:31.212Z,2.25
2022-10-04T21:29:59.334Z,2.28
2022-10-04T21:32:28.024Z,2.25
2022-10-04T21:34:55.166Z,2.20
2022-10-04T21:37:22.214Z,2.50
2022-10-04T21:39:49.415Z,2.10
2022-10-04T21:42:16.403Z,2.42
2022-10-04T21:44:43.509Z,2.10
2022-10-04T21:47:11.083Z,2.17
2022-10-04T21:49:38.096Z,2.10
2022-10-04T21:52:05.551Z,2.20
2022-10-04T21:54:33.567Z,2.40
2022-10-04T21:57:00.842Z,2.50
2022-10-04T21:59:28.115Z,2.00
2022-10-04T22:01:55.226Z,2.75
2022-10-04T22:04:22.381Z,2.22
2022-10-04T22:06:49.759Z,2.05
2022-10-04T22:09:16.977Z,2.10
2022-10-04T22:11:44.349Z,2.05
2022-10-04T22:14:11.473Z,2.28
2022-10-04T22:16:38.478Z,2.20
2022-10-04T22:19:05.443Z,2.10
2022-10-04T22:21:32.467Z,2.30
2022-10-04T22:23:59.917Z,1.98
2022-10-04T22:26:27.378Z,1.98
2022-10-04T22:28:56.158Z,2.15
2022-10-04T22:31:29.073Z,2.15
2022-10-04T22:33:56.895Z,2.20
2022-10-04T22:36:39.634Z,1.88
2022-10-04T22:39:09.330Z,1.77
2022-10-04T22:41:43.817Z,1.90
2022-10-04T22:44:25.294Z,1.70
2022-10-04T22:46:57.705Z,1.88
2022-10-04T22:49:31.431Z,1.90
2022-10-04T22:52:00.701Z,1.95
2022-10-04T22:54:32.284Z,2.20
2022-10-04T22:57:00.159Z,2.03
2022-10-04T22:59:39.337Z,2.00
2022-10-04T23:02:15.021Z,2.17
2022-10-04T23:04:52.438Z,2.17
2022-10-04T23:07:20.330Z,2.20
2022-10-04T23:09:47.582Z,2.00
2022-10-04T23:12:14.926Z,2.33
2022-10-04T23:14:42.293Z,1.80
2022-10-04T23:17:31.545Z,2.10
2022-10-04T23:20:10.189Z,2.05
2022-10-04T23:22:37.618Z,2.00
2022-10-04T23:25:23.588Z,2.08
2022-10-04T23:27:50.617Z,2.20
2022-10-04T23:30:22.783Z,1.95
2022-10-04T23:32:53.528Z,2.00
2022-10-04T23:35:25.496Z,2.53
2022-10-04T23:37:53.153Z,2.05
2022-10-04T23:40:23.377Z,2.30
2022-10-04T23:42:53.892Z,2.53
2022-10-04T23:45:27.056Z,2.40
2022-10-04T23:47:59.265Z,2.67
2022-10-04T23:50:37.694Z,2.60
2022-10-04T23:53:10.469Z,2.75
2022-10-04T23:55:43.025Z,2.65
2022-10-04T23:58:19.600Z,2.65
